createdAt,value
2019-03-28T00:04:55.304Z,24.57
2019-03-28T00:14:56.016Z,24.93
2019-03-28T00:24:56.981Z,24.73
2019-03-28T00:34:57.649Z,26.27
2019-03-28T00:44:58.383Z,27.50
2019-03-28T00:54:59.354Z,25.37
2019-03-28T01:05:00.264Z,26.37
2019-03-28T01:15:02.256Z,25.23
2019-03-28T01:25:03.220Z,24.57
2019-03-28T01:35:04.922Z,23.17
2019-03-28T01:45:05.681Z,24.87
2019-03-28T01:55:06.467Z,26.60
2019-03-28T02:05:07.242Z,26.70
2019-03-28T02:15:08.171Z,25.40
2019-03-28T02:25:09.018Z,27.50
2019-03-28T02:35:09.796Z,25.10
2019-03-28T02:45:10.542Z,26.50
2019-03-28T02:55:11.146Z,27.77
2019-03-28T03:05:11.921Z,26.73
2019-03-28T03:15:12.894Z,27.97
2019-03-28T03:25:13.636Z,26.03
2019-03-28T03:35:15.076Z,25.00
2019-03-28T03:45:15.940Z,25.20
2019-03-28T03:55:17.059Z,25.57
2019-03-28T04:05:17.845Z,27.93
2019-03-28T04:15:18.609Z,29.70
2019-03-28T04:25:19.336Z,29.40
2019-03-28T04:35:20.022Z,26.97
2019-03-28T04:45:20.684Z,28.70
2019-03-28T04:55:21.550Z,30.60
2019-03-28T05:05:25.006Z,28.43
2019-03-28T05:15:25.771Z,30.43
2019-03-28T05:25:26.510Z,28.50
2019-03-28T05:35:27.392Z,27.83
2019-03-28T05:45:28.069Z,29.13
2019-03-28T05:55:28.836Z,26.37
2019-03-28T06:05:29.530Z,29.23
2019-03-28T06:15:30.334Z,28.50
2019-03-28T06:25:31.096Z,29.80
2019-03-28T06:35:31.788Z,31.67
2019-03-28T06:45:34.663Z,35.47
2019-03-28T06:55:36.939Z,33.70
2019-03-28T07:05:37.798Z,31.50
2019-03-28T07:15:38.716Z,33.07
2019-03-28T07:25:39.466Z,29.73
2019-03-28T07:35:40.206Z,30.37
2019-03-28T07:45:40.882Z,30.93
2019-03-28T07:55:41.565Z,34.47
2019-03-28T08:05:42.290Z,33.03
2019-03-28T08:15:43.039Z,36.73
2019-03-28T08:25:43.737Z,36.40
2019-03-28T08:35:50.043Z,36.67
2019-03-28T08:45:50.697Z,36.67
2019-03-28T08:55:53.537Z,34.40
2019-03-28T09:05:54.353Z,36.70
2019-03-28T09:15:55.074Z,34.93
2019-03-28T09:25:55.874Z,35.27
2019-03-28T09:35:57.576Z,33.30
2019-03-28T09:46:00.365Z,32.20
2019-03-28T09:56:01.227Z,30.60
2019-03-28T10:06:02.091Z,28.23
2019-03-28T10:16:02.833Z,23.33
2019-03-28T10:26:06.802Z,17.43
2019-03-28T10:36:08.541Z,17.37
2019-03-28T10:46:17.382Z,18.23
2019-03-28T10:56:21.950Z,15.87
2019-03-28T11:06:21.043Z,14.13
2019-03-28T11:16:21.787Z,13.17
2019-03-28T11:26:25.563Z,11.17
2019-03-28T11:36:26.198Z,9.87
2019-03-28T11:46:30.735Z,7.03
2019-03-28T11:56:31.422Z,8.57
2019-03-28T12:06:32.224Z,9.10
2019-03-28T12:16:34.058Z,9.83
2019-03-28T12:26:35.889Z,9.17
2019-03-28T12:36:36.609Z,8.17
2019-03-28T12:46:37.349Z,10.23
2019-03-28T12:56:38.580Z,11.30
2019-03-28T13:06:39.316Z,10.90
2019-03-28T13:16:43.253Z,9.30
2019-03-28T13:26:44.065Z,10.93
2019-03-28T13:36:47.602Z,11.23
2019-03-28T13:46:51.419Z,12.73
2019-03-28T13:56:52.149Z,11.33
2019-03-28T14:06:52.921Z,11.10
2019-03-28T14:17:04.783Z,9.57
2019-03-28T14:27:06.649Z,9.40
2019-03-28T14:37:11.583Z,9.60
2019-03-28T14:47:12.380Z,9.03
2019-03-28T14:57:13.679Z,9.97
2019-03-28T15:07:14.423Z,8.43
2019-03-28T15:17:15.137Z,8.30
2019-03-28T15:27:15.954Z,7.97
2019-03-28T15:37:17.560Z,6.80
2019-03-28T15:47:20.607Z,5.40
2019-03-28T15:57:21.254Z,4.70
2019-03-28T16:07:22.405Z,4.50
2019-03-28T16:17:23.187Z,3.77
2019-03-28T16:27:23.998Z,4.70
2019-03-28T16:37:24.675Z,5.03
2019-03-28T16:47:26.427Z,5.10
2019-03-28T16:57:32.742Z,3.57
2019-03-28T17:07:35.702Z,4.70
2019-03-28T17:17:38.434Z,3.17
2019-03-28T17:27:42.183Z,2.70
2019-03-28T17:37:46.930Z,5.43
2019-03-28T17:47:48.101Z,6.80
2019-03-28T17:57:48.844Z,6.67
2019-03-28T18:07:50.659Z,7.07
2019-03-28T18:17:51.605Z,5.20
2019-03-28T18:27:52.372Z,6.40
2019-03-28T18:37:53.459Z,11.07
2019-03-28T18:47:54.310Z,6.60
2019-03-28T18:57:55.183Z,5.67
2019-03-28T19:07:55.989Z,6.00
2019-03-28T19:17:59.713Z,7.30
2019-03-28T19:28:00.433Z,6.47
2019-03-28T19:38:01.758Z,8.60
2019-03-28T19:48:04.810Z,5.37
2019-03-28T19:58:07.302Z,5.63
2019-03-28T20:08:15.437Z,5.83
2019-03-28T20:18:12.632Z,6.27
2019-03-28T20:28:14.597Z,6.80
2019-03-28T20:38:16.479Z,7.00
2019-03-28T20:48:25.011Z,6.63
2019-03-28T20:58:25.864Z,6.80
2019-03-28T21:08:26.497Z,7.03
2019-03-28T21:18:27.245Z,7.73
2019-03-28T21:28:27.877Z,6.63
2019-03-28T21:38:29.581Z,6.93
2019-03-28T21:48:30.269Z,7.10
2019-03-28T21:58:31.036Z,6.10
2019-03-28T22:08:32.233Z,7.27
2019-03-28T22:18:33.919Z,6.83
2019-03-28T22:28:37.855Z,7.47
2019-03-28T22:38:37.470Z,8.53
2019-03-28T22:48:38.107Z,8.13
2019-03-28T22:58:38.820Z,7.83
2019-03-28T23:08:39.566Z,8.40
2019-03-28T23:18:41.381Z,8.67
2019-03-28T23:28:42.096Z,8.30
2019-03-28T23:38:46.162Z,9.17
2019-03-28T23:48:47.894Z,8.83
2019-03-28T23:58:49.059Z,8.37
